This is the latest recevied weather packets stored in our database for station/object K5UBE. If no packets are shown the sender has not sent any weather packets the latest 10 day(s).
| Time | Temp. | Humidity | Pressure | Rain* | Wind** | Luminosity | Snow |
|---|---|---|---|---|---|---|---|
| 1777739191 | 16.11° C | 49% | 1026.8 hPa | 0 mm | - | - | - |
| 1777738889 | 15° C | 49% | 1026.6 hPa | 0 mm | - | - | - |
| 1777738586 | 15° C | 49% | 1026.8 hPa | 0 mm | - | - | - |
| 1777738283 | 14.44° C | 53% | 1026.9 hPa | 0 mm | - | - | - |
| 1777737981 | 15.56° C | 52% | 1026.8 hPa | 0 mm | - | - | - |
| 1777737679 | 14.44° C | 54% | 1026.5 hPa | 0 mm | - | - | - |
| 1777737378 | 14.44° C | 54% | 1026.7 hPa | 0 mm | - | - | - |
| 1777737074 | 14.44° C | 55% | 1026.7 hPa | 0 mm | - | - | - |
| 1777736770 | 14.44° C | 55% | 1026.7 hPa | 0 mm | - | - | - |
| 1777736142 | 14.44° C | 55% | 1026.8 hPa | 0 mm | - | - | - |
| 1777735839 | 13.89° C | 57% | 1026.7 hPa | 0 mm | - | - | - |
| 1777735536 | 13.33° C | 57% | 1026.6 hPa | 0 mm | - | - | - |
| 1777735234 | 13.33° C | 59% | 1026.5 hPa | 0 mm | - | - | - |
| 1777734931 | 13.33° C | 58% | 1026.6 hPa | 0 mm | - | - | - |
| 1777734628 | 13.33° C | 61% | 1026.6 hPa | 0 mm | - | - | - |
| 1777734326 | 12.78° C | 62% | 1026.6 hPa | 0 mm | - | - | - |
| 1777734021 | 12.78° C | 62% | 1026.7 hPa | 0 mm | - | - | - |
| 1777733718 | 12.78° C | 65% | 1026.7 hPa | 0 mm | - | - | - |
| 1777731595 | 11.11° C | 73% | 1026.5 hPa | 0 mm | - | - | - |
| 1777731293 | 10.56° C | 75% | 1026.3 hPa | 0 mm | - | - | - |
| 1777730990 | 10.56° C | 74% | 1026.6 hPa | 0 mm | - | - | - |
| 1777730689 | 10° C | 78% | 1026.6 hPa | 0 mm | - | - | - |
| 1777730384 | 10° C | 76% | 1026.6 hPa | 0 mm | - | - | - |
| 1777730081 | 9.44° C | 78% | 1026.2 hPa | 0 mm | - | - | - |
| 1777729777 | 9.44° C | 78% | 1026.3 hPa | 0 mm | - | - | - |
* Rain latest hour (hover to see other rain measurements)
** Current wind speed in m/s (hover to see current wind gust speed)